createdAt,value
2022-08-14T00:01:02.469Z,55.03
2022-08-14T00:03:37.438Z,54.75
2022-08-14T00:06:14.101Z,55.38
2022-08-14T00:08:51.212Z,55.15
2022-08-14T00:11:19.624Z,55.35
2022-08-14T00:13:51.742Z,55.78
2022-08-14T00:16:41.499Z,55.41
2022-08-14T00:19:21.158Z,55.68
2022-08-14T00:21:50.911Z,55.60
2022-08-14T00:24:23.318Z,55.74
2022-08-14T00:26:55.668Z,55.63
2022-08-14T00:29:25.214Z,55.69
2022-08-14T00:31:56.365Z,53.46
2022-08-14T00:34:37.216Z,55.79
2022-08-14T00:37:11.274Z,55.81
2022-08-14T00:39:39.349Z,56.73
2022-08-14T00:42:07.503Z,57.42
2022-08-14T00:44:48.529Z,56.84
2022-08-14T00:47:16.666Z,56.94
2022-08-14T00:49:44.862Z,56.99
2022-08-14T00:52:18.242Z,57.45
2022-08-14T00:54:47.408Z,57.39
2022-08-14T00:57:14.153Z,57.36
2022-08-14T00:59:41.307Z,57.61
2022-08-14T01:02:09.356Z,57.59
2022-08-14T01:04:38.001Z,57.18
2022-08-14T01:07:21.724Z,57.16
2022-08-14T01:10:01.696Z,57.51
2022-08-14T01:12:40.658Z,57.21
2022-08-14T01:15:09.434Z,57.93
2022-08-14T01:17:55.246Z,57.45
2022-08-14T01:20:41.405Z,58.05
2022-08-14T01:23:16.625Z,57.51
2022-08-14T01:25:51.036Z,57.43
2022-08-14T01:28:34.317Z,57.51
2022-08-14T01:31:08.689Z,57.45
2022-08-14T01:34:00.415Z,57.67
2022-08-14T01:36:29.801Z,57.58
2022-08-14T01:39:04.082Z,57.52
2022-08-14T01:41:40.803Z,57.61
2022-08-14T01:44:32.319Z,57.86
2022-08-14T01:47:01.309Z,57.66
2022-08-14T01:49:35.538Z,57.91
2022-08-14T01:52:03.632Z,58.06
2022-08-14T01:54:38.131Z,58.49
2022-08-14T01:57:11.566Z,58.38
2022-08-14T01:59:43.105Z,58.71
2022-08-14T02:02:19.587Z,58.87
2022-08-14T02:04:56.724Z,58.51
2022-08-14T02:07:34.493Z,59.04
2022-08-14T02:10:15.527Z,58.73
2022-08-14T02:12:43.507Z,58.93
2022-08-14T02:15:11.363Z,59.04
2022-08-14T02:17:39.180Z,59.04
2022-08-14T02:20:08.601Z,59.29
2022-08-14T02:22:35.461Z,59.63
2022-08-14T02:25:14.124Z,59.48
2022-08-14T02:28:24.310Z,59.70
2022-08-14T02:30:31.957Z,59.57
2022-08-14T02:32:58.824Z,59.58
2022-08-14T02:35:32.730Z,59.92
2022-08-14T02:38:00.025Z,59.76
2022-08-14T02:40:31.845Z,59.82
2022-08-14T02:43:00.595Z,60.14
2022-08-14T02:45:38.426Z,59.98
2022-08-14T02:49:04.728Z,60.32
2022-08-14T02:51:00.525Z,59.79
2022-08-14T02:53:27.095Z,60.44
2022-08-14T02:55:56.400Z,60.33
2022-08-14T02:58:31.128Z,60.22
2022-08-14T03:00:59.118Z,60.34
2022-08-14T03:03:25.957Z,60.26
2022-08-14T03:05:54.355Z,60.25
2022-08-14T03:08:22.190Z,60.14
2022-08-14T03:10:50.281Z,60.32
2022-08-14T03:13:21.665Z,60.41
2022-08-14T03:15:55.796Z,60.28
2022-08-14T03:18:31.583Z,60.92
2022-08-14T03:21:03.563Z,60.70
2022-08-14T03:23:38.000Z,60.60
2022-08-14T03:26:08.525Z,60.68
2022-08-14T03:28:36.624Z,60.57
2022-08-14T03:31:04.275Z,60.72
2022-08-14T03:33:40.280Z,61.08
2022-08-14T03:37:52.042Z,60.82
2022-08-14T03:39:12.322Z,61.19
2022-08-14T03:41:42.777Z,60.97
2022-08-14T03:45:18.684Z,61.46
2022-08-14T03:46:56.435Z,61.40
2022-08-14T03:49:28.581Z,61.65
2022-08-14T03:51:58.396Z,61.63
2022-08-14T03:54:28.740Z,61.86
2022-08-14T03:57:00.580Z,61.84
2022-08-14T03:59:29.719Z,61.95
2022-08-14T04:02:01.406Z,62.01
2022-08-14T04:04:30.573Z,62.44
2022-08-14T04:06:59.177Z,62.60
2022-08-14T04:09:27.077Z,62.49
2022-08-14T04:11:54.439Z,62.79
2022-08-14T04:14:22.857Z,62.73
2022-08-14T04:16:50.259Z,63.10
2022-08-14T04:19:19.305Z,63.21
2022-08-14T04:22:03.966Z,63.31
2022-08-14T04:24:37.630Z,63.34
2022-08-14T04:27:09.991Z,64.03
2022-08-14T04:29:42.447Z,63.93
2022-08-14T04:32:59.062Z,63.55
2022-08-14T04:34:57.463Z,63.79
2022-08-14T04:37:43.115Z,63.92
2022-08-14T04:40:29.035Z,64.04
2022-08-14T04:43:17.370Z,64.05
2022-08-14T04:45:45.016Z,63.95
2022-08-14T04:48:39.140Z,64.59
2022-08-14T04:51:11.721Z,64.42
2022-08-14T04:53:43.167Z,64.41
2022-08-14T04:56:31.682Z,64.25
2022-08-14T04:59:10.273Z,63.94
2022-08-14T05:01:41.550Z,63.75
2022-08-14T05:04:16.114Z,63.74
2022-08-14T05:06:46.925Z,63.66
2022-08-14T05:09:15.972Z,63.40
2022-08-14T05:11:44.213Z,63.24
2022-08-14T05:14:34.473Z,63.03
2022-08-14T05:17:01.974Z,62.53
2022-08-14T05:19:29.878Z,62.56
2022-08-14T05:22:15.912Z,62.25
2022-08-14T05:24:50.415Z,62.39
2022-08-14T05:27:23.092Z,63.12
2022-08-14T05:29:53.258Z,62.31
2022-08-14T05:32:20.240Z,62.11
2022-08-14T05:34:46.937Z,62.50
2022-08-14T05:37:15.321Z,61.76
2022-08-14T05:39:42.753Z,61.47
2022-08-14T05:42:09.877Z,61.15
2022-08-14T05:44:48.392Z,62.18
2022-08-14T05:47:16.016Z,60.70
2022-08-14T05:49:43.646Z,61.15
2022-08-14T05:52:10.630Z,59.81
2022-08-14T05:54:44.304Z,60.49
2022-08-14T05:57:10.845Z,59.38
2022-08-14T05:59:39.571Z,59.13
2022-08-14T06:02:07.807Z,58.49
2022-08-14T06:04:36.794Z,58.68
2022-08-14T06:07:03.489Z,57.75
2022-08-14T06:09:35.739Z,57.70
2022-08-14T06:12:10.346Z,56.96
2022-08-14T06:14:38.701Z,57.16
2022-08-14T06:17:05.773Z,56.85
2022-08-14T06:19:32.286Z,57.20
2022-08-14T06:21:59.595Z,56.65
2022-08-14T06:24:30.796Z,56.80
2022-08-14T06:27:06.366Z,56.64
2022-08-14T06:29:37.954Z,56.57
2022-08-14T06:32:36.497Z,56.18
2022-08-14T06:35:02.497Z,56.89
2022-08-14T06:37:42.416Z,56.89
2022-08-14T06:40:25.748Z,57.04
2022-08-14T06:42:55.638Z,56.50
2022-08-14T06:45:26.402Z,56.56
2022-08-14T06:47:54.474Z,56.49
2022-08-14T06:50:28.020Z,56.36
2022-08-14T06:52:55.949Z,57.35
2022-08-14T06:55:26.476Z,58.50
2022-08-14T06:57:55.146Z,56.22
2022-08-14T07:00:26.903Z,56.01
2022-08-14T07:03:13.387Z,59.33
2022-08-14T07:05:55.006Z,55.06
2022-08-14T07:08:26.387Z,55.58
2022-08-14T07:11:00.634Z,54.91
2022-08-14T07:13:28.421Z,55.04
2022-08-14T07:15:58.383Z,55.36
2022-08-14T07:18:28.181Z,54.46
2022-08-14T07:20:56.181Z,54.20
2022-08-14T07:23:26.537Z,54.94
2022-08-14T07:25:58.303Z,55.37
2022-08-14T07:28:45.267Z,54.98
2022-08-14T07:31:12.615Z,53.32
2022-08-14T07:33:43.658Z,53.31
2022-08-14T07:36:26.370Z,54.79
2022-08-14T07:38:56.185Z,52.61
2022-08-14T07:41:22.629Z,52.65
2022-08-14T07:43:55.594Z,53.52
2022-08-14T07:46:29.321Z,52.58
2022-08-14T07:48:58.119Z,52.39
2022-08-14T07:51:26.101Z,52.24
2022-08-14T07:54:00.762Z,52.33
2022-08-14T07:56:48.138Z,52.34
2022-08-14T07:59:18.155Z,51.46
2022-08-14T08:01:51.356Z,51.63
2022-08-14T08:04:24.554Z,51.70
2022-08-14T08:06:52.919Z,50.27
2022-08-14T08:09:25.216Z,50.40
2022-08-14T08:12:01.779Z,49.63
2022-08-14T08:14:34.179Z,51.59
2022-08-14T08:17:23.265Z,49.88
2022-08-14T08:19:51.610Z,48.70
2022-08-14T08:22:18.557Z,48.28
2022-08-14T08:24:45.037Z,47.95
2022-08-14T08:27:16.844Z,49.41
2022-08-14T08:29:50.741Z,48.03
2022-08-14T08:32:18.409Z,48.87
2022-08-14T08:34:46.814Z,47.57
2022-08-14T08:37:14.728Z,46.17
2022-08-14T08:40:03.144Z,46.85
2022-08-14T08:42:38.685Z,46.63
2022-08-14T08:45:11.892Z,46.28
2022-08-14T08:47:40.481Z,45.60
2022-08-14T08:53:00.027Z,45.23
2022-08-14T08:55:42.684Z,46.58
2022-08-14T08:58:19.776Z,45.69
2022-08-14T09:00:54.332Z,45.55
2022-08-14T09:03:25.503Z,44.13
2022-08-14T09:06:53.868Z,44.00
2022-08-14T09:08:52.397Z,43.65
2022-08-14T09:11:21.464Z,43.12
2022-08-14T09:13:52.973Z,44.39
2022-08-14T09:16:25.919Z,43.05
2022-08-14T09:18:54.074Z,43.51
2022-08-14T09:21:24.297Z,43.92
2022-08-14T09:24:29.478Z,43.50
2022-08-14T09:26:43.326Z,41.55
2022-08-14T09:29:11.170Z,41.42
2022-08-14T09:31:53.314Z,41.15
2022-08-14T09:34:47.488Z,39.73
2022-08-14T09:37:43.901Z,40.38
2022-08-14T09:40:21.197Z,39.76
2022-08-14T09:43:07.193Z,39.46
2022-08-14T09:45:53.559Z,39.80
2022-08-14T09:48:30.268Z,38.47
2022-08-14T09:53:34.205Z,37.69
2022-08-14T09:56:30.138Z,37.11
2022-08-14T09:59:10.651Z,37.55
2022-08-14T10:01:37.518Z,37.53
2022-08-14T10:04:06.966Z,36.10
2022-08-14T10:06:52.306Z,35.94
2022-08-14T10:09:19.436Z,34.74
2022-08-14T10:11:58.883Z,35.47
2022-08-14T10:14:35.470Z,33.14
2022-08-14T10:17:06.270Z,33.54
2022-08-14T10:19:35.632Z,33.40
2022-08-14T10:23:15.168Z,34.58
2022-08-14T10:24:57.531Z,32.26
2022-08-14T10:27:27.109Z,31.60
2022-08-14T10:30:04.589Z,31.87
2022-08-14T10:32:51.702Z,31.97
2022-08-14T10:35:18.942Z,33.30
2022-08-14T10:37:51.362Z,32.23
2022-08-14T10:40:38.777Z,32.52
2022-08-14T10:43:23.951Z,32.62
2022-08-14T10:46:03.522Z,32.96
2022-08-14T10:49:04.038Z,33.01
2022-08-14T10:51:35.316Z,32.65
2022-08-14T10:54:16.940Z,32.25
2022-08-14T10:56:57.850Z,32.48
2022-08-14T10:59:34.892Z,30.55
2022-08-14T11:02:17.550Z,31.28
2022-08-14T11:04:44.284Z,30.34
2022-08-14T11:07:19.249Z,31.38
2022-08-14T11:10:00.153Z,31.90
2022-08-14T11:12:40.687Z,31.53
2022-08-14T11:15:07.951Z,32.05
2022-08-14T11:17:38.644Z,31.95
2022-08-14T11:20:13.718Z,33.48
2022-08-14T11:22:52.297Z,33.47
2022-08-14T11:25:44.056Z,33.39
2022-08-14T11:28:18.801Z,34.43
2022-08-14T11:30:53.686Z,33.50
2022-08-14T11:33:32.672Z,35.02
2022-08-14T11:36:01.738Z,33.66
2022-08-14T11:38:35.803Z,34.44
2022-08-14T11:41:05.703Z,34.92
2022-08-14T11:43:57.926Z,34.75
2022-08-14T11:46:30.292Z,35.37
2022-08-14T11:49:05.172Z,35.95
2022-08-14T11:51:47.474Z,35.73
2022-08-14T11:54:34.461Z,34.50
2022-08-14T11:57:02.255Z,34.08
2022-08-14T11:59:33.587Z,34.85
2022-08-14T12:03:00.141Z,33.95
2022-08-14T12:05:04.787Z,35.17
2022-08-14T12:07:36.118Z,33.99
2022-08-14T12:10:27.216Z,33.81
2022-08-14T12:12:52.549Z,35.23
2022-08-14T12:15:29.427Z,34.40
2022-08-14T12:17:56.383Z,35.15
2022-08-14T12:20:32.507Z,35.64
2022-08-14T12:23:01.086Z,34.30
2022-08-14T12:25:29.312Z,34.57
2022-08-14T12:27:59.073Z,34.85
2022-08-14T12:30:44.381Z,35.46
2022-08-14T12:33:23.781Z,34.89
2022-08-14T12:35:51.372Z,34.64
2022-08-14T12:38:54.266Z,35.21
2022-08-14T12:41:28.068Z,35.72
2022-08-14T12:44:03.257Z,34.99
2022-08-14T12:46:35.044Z,35.55
2022-08-14T12:49:18.651Z,34.58
2022-08-14T12:51:57.123Z,35.80
2022-08-14T12:54:28.407Z,35.73
2022-08-14T12:57:19.517Z,35.36
2022-08-14T12:59:47.366Z,36.35
2022-08-14T13:02:27.878Z,36.03
2022-08-14T13:04:55.878Z,34.48
2022-08-14T13:07:23.981Z,35.61
2022-08-14T13:09:56.010Z,34.83
2022-08-14T13:12:33.159Z,35.96
2022-08-14T13:15:14.774Z,35.78
2022-08-14T13:17:47.014Z,36.89
2022-08-14T13:20:23.523Z,37.23
2022-08-14T13:22:52.919Z,36.78
2022-08-14T13:25:22.844Z,36.32
2022-08-14T13:27:54.993Z,36.50
2022-08-14T13:30:24.825Z,35.71
2022-08-14T13:32:57.723Z,35.57
2022-08-14T13:35:25.508Z,35.83
2022-08-14T13:37:53.682Z,35.21
2022-08-14T13:40:26.285Z,36.05
2022-08-14T13:42:55.273Z,34.30
2022-08-14T13:45:34.027Z,33.08
2022-08-14T13:48:27.230Z,32.63
2022-08-14T13:51:01.906Z,33.07
2022-08-14T13:53:33.328Z,32.87
2022-08-14T13:56:01.581Z,32.43
2022-08-14T13:58:34.614Z,31.46
2022-08-14T14:01:04.276Z,32.42
2022-08-14T14:03:35.178Z,30.71
2022-08-14T14:06:02.881Z,30.05
2022-08-14T14:08:42.915Z,30.84
2022-08-14T14:11:11.067Z,28.08
2022-08-14T14:13:41.807Z,27.27
2022-08-14T14:16:14.982Z,29.26
2022-08-14T14:18:43.829Z,27.46
2022-08-14T14:21:13.938Z,26.16
2022-08-14T14:23:42.840Z,26.06
2022-08-14T14:26:14.124Z,30.34
2022-08-14T14:28:42.629Z,31.04
2022-08-14T14:31:11.425Z,32.19
2022-08-14T14:33:46.624Z,30.91
2022-08-14T14:36:20.823Z,31.07
2022-08-14T14:38:52.387Z,32.22
2022-08-14T14:41:24.210Z,30.55
2022-08-14T14:43:52.258Z,30.84
2022-08-14T14:46:22.399Z,30.97
2022-08-14T14:49:06.469Z,30.02
2022-08-14T14:51:34.952Z,30.44
2022-08-14T14:54:02.296Z,30.11
2022-08-14T14:56:48.178Z,29.76
2022-08-14T14:59:18.300Z,30.60
2022-08-14T15:01:49.106Z,31.68
2022-08-14T15:04:20.556Z,32.89
2022-08-14T15:06:49.105Z,32.84
2022-08-14T15:09:18.105Z,33.36
2022-08-14T15:11:45.609Z,33.02
2022-08-14T15:14:55.706Z,33.79
2022-08-14T15:16:59.058Z,33.80
2022-08-14T15:19:27.303Z,34.16
2022-08-14T15:21:55.295Z,35.03
2022-08-14T15:24:26.579Z,35.29
2022-08-14T15:26:54.327Z,34.72
2022-08-14T15:29:20.759Z,36.11
2022-08-14T15:31:47.381Z,36.90
2022-08-14T15:34:44.039Z,35.57
2022-08-14T15:37:06.635Z,36.12
2022-08-14T15:39:41.497Z,35.60
2022-08-14T15:42:15.896Z,34.72
2022-08-14T15:44:44.769Z,34.15
2022-08-14T15:47:27.715Z,34.91
2022-08-14T15:49:56.320Z,34.04
2022-08-14T15:52:32.394Z,33.61
2022-08-14T15:55:06.558Z,34.64
2022-08-14T15:57:34.473Z,34.82
2022-08-14T16:00:21.583Z,35.45
2022-08-14T16:03:15.599Z,33.92
2022-08-14T16:05:43.353Z,34.28
2022-08-14T16:08:26.871Z,34.26
2022-08-14T16:10:56.736Z,33.50
2022-08-14T16:13:41.535Z,33.36
2022-08-14T16:16:34.386Z,34.20
2022-08-14T16:19:11.136Z,33.77
2022-08-14T16:22:01.710Z,34.19
2022-08-14T16:24:33.542Z,34.77
2022-08-14T16:27:01.435Z,34.69
2022-08-14T16:29:31.051Z,36.01
2022-08-14T16:32:01.782Z,35.53
2022-08-14T16:34:50.071Z,34.40
2022-08-14T16:37:21.161Z,34.33
2022-08-14T16:39:49.300Z,35.72
2022-08-14T16:42:38.999Z,35.65
2022-08-14T16:45:02.649Z,35.22
2022-08-14T16:47:32.005Z,35.03
2022-08-14T16:50:08.685Z,34.60
2022-08-14T16:52:44.187Z,34.14
2022-08-14T16:55:14.244Z,33.97
2022-08-14T16:57:58.877Z,34.53
2022-08-14T17:00:44.021Z,34.32
2022-08-14T17:03:12.453Z,34.24
2022-08-14T17:05:42.962Z,34.37
2022-08-14T17:08:31.961Z,34.44
2022-08-14T17:11:09.725Z,34.90
2022-08-14T17:13:59.303Z,34.08
2022-08-14T17:16:38.574Z,34.83
2022-08-14T17:19:13.965Z,35.18
2022-08-14T17:21:46.689Z,34.78
2022-08-14T17:24:58.510Z,35.77
2022-08-14T17:27:03.631Z,35.99
2022-08-14T17:29:33.628Z,36.40
2022-08-14T17:32:07.167Z,37.03
2022-08-14T17:34:53.881Z,37.10
2022-08-14T17:37:29.723Z,37.88
2022-08-14T17:40:01.240Z,38.15
2022-08-14T17:42:51.785Z,37.75
2022-08-14T17:45:26.837Z,38.82
2022-08-14T17:47:59.130Z,39.17
2022-08-14T17:50:59.564Z,39.01
2022-08-14T17:53:27.586Z,39.79
2022-08-14T17:56:02.146Z,38.57
2022-08-14T17:58:42.146Z,39.84
2022-08-14T18:01:13.598Z,40.29
2022-08-14T18:03:50.824Z,41.30
2022-08-14T18:06:38.468Z,38.94
2022-08-14T18:09:24.566Z,41.86
2022-08-14T18:11:54.287Z,41.69
2022-08-14T18:14:32.264Z,41.30
2022-08-14T18:17:01.475Z,42.27
2022-08-14T18:19:30.887Z,42.11
2022-08-14T18:21:59.386Z,42.68
2022-08-14T18:24:30.007Z,42.46
2022-08-14T18:27:23.229Z,42.52
2022-08-14T18:29:55.482Z,43.10
2022-08-14T18:32:31.407Z,43.56
2022-08-14T18:35:03.359Z,43.94
2022-08-14T18:37:39.346Z,44.80
2022-08-14T18:40:34.751Z,44.06
2022-08-14T18:43:03.654Z,45.31
2022-08-14T18:45:33.273Z,45.84
2022-08-14T18:48:18.731Z,45.26
2022-08-14T18:51:02.469Z,46.35
2022-08-14T18:53:33.985Z,46.40
2022-08-14T18:56:09.368Z,47.33
2022-08-14T18:58:57.158Z,46.91
2022-08-14T19:01:29.783Z,47.69
2022-08-14T19:03:58.570Z,47.99
2022-08-14T19:06:44.716Z,47.83
2022-08-14T19:09:50.720Z,47.88
2022-08-14T19:12:58.160Z,47.62
2022-08-14T19:15:31.527Z,49.14
2022-08-14T19:18:10.539Z,50.00
2022-08-14T19:20:46.786Z,49.72
2022-08-14T19:23:18.185Z,50.39
2022-08-14T19:25:59.413Z,50.08
2022-08-14T19:28:48.931Z,49.81
2022-08-14T19:31:42.007Z,50.42
2022-08-14T19:34:09.214Z,51.24
2022-08-14T19:37:05.755Z,51.31
2022-08-14T19:39:54.312Z,50.96
2022-08-14T19:42:28.276Z,51.90
2022-08-14T19:44:57.371Z,52.15
2022-08-14T19:47:41.306Z,51.30
2022-08-14T19:50:39.023Z,51.70
2022-08-14T19:53:11.106Z,51.63
2022-08-14T19:55:39.335Z,52.47
2022-08-14T19:58:12.949Z,52.85
2022-08-14T20:00:52.494Z,52.47
2022-08-14T20:03:23.866Z,52.70
2022-08-14T20:06:00.582Z,52.49
2022-08-14T20:10:59.770Z,52.67
2022-08-14T20:12:00.609Z,52.09
2022-08-14T20:14:22.974Z,52.92
2022-08-14T20:17:06.284Z,52.77
2022-08-14T20:19:38.085Z,52.33
2022-08-14T20:22:35.564Z,52.38
2022-08-14T20:25:11.341Z,52.45
2022-08-14T20:27:40.766Z,52.52
2022-08-14T20:30:34.063Z,52.45
2022-08-14T20:33:11.314Z,52.80
2022-08-14T20:35:43.345Z,52.15
2022-08-14T20:38:30.777Z,52.48
2022-08-14T20:41:09.784Z,52.41
2022-08-14T20:43:59.758Z,52.47
2022-08-14T20:46:38.633Z,52.53
2022-08-14T20:49:16.510Z,52.73
2022-08-14T20:51:59.043Z,52.68
2022-08-14T20:54:34.721Z,52.10
2022-08-14T20:57:12.041Z,52.14
2022-08-14T20:59:53.640Z,52.41
2022-08-14T21:02:29.502Z,52.22
2022-08-14T21:05:03.550Z,52.19
2022-08-14T21:07:50.433Z,52.13
2022-08-14T21:10:33.909Z,52.28
2022-08-14T21:13:58.717Z,52.22
2022-08-14T21:15:57.130Z,52.09
2022-08-14T21:18:30.573Z,52.20
2022-08-14T21:21:00.762Z,52.30
2022-08-14T21:23:32.843Z,52.12
2022-08-14T21:25:59.805Z,52.04
2022-08-14T21:28:29.953Z,51.65
2022-08-14T21:30:57.604Z,51.63
2022-08-14T21:33:25.103Z,51.95
2022-08-14T21:35:55.624Z,51.42
2022-08-14T21:38:33.716Z,51.86
2022-08-14T21:41:43.352Z,51.46
2022-08-14T21:44:18.107Z,51.79
2022-08-14T21:46:55.863Z,51.71
2022-08-14T21:49:38.221Z,51.73
2022-08-14T21:52:51.383Z,52.04
2022-08-14T21:54:58.778Z,52.05
2022-08-14T21:57:56.389Z,52.13
2022-08-14T22:00:34.527Z,52.75
2022-08-14T22:03:05.853Z,52.65
2022-08-14T22:05:32.964Z,53.15
2022-08-14T22:08:02.311Z,53.38
2022-08-14T22:10:29.864Z,53.05
2022-08-14T22:13:00.653Z,51.34
2022-08-14T22:15:29.947Z,53.26
2022-08-14T22:17:58.461Z,53.56
2022-08-14T22:20:28.707Z,53.49
2022-08-14T22:22:56.592Z,53.61
2022-08-14T22:25:33.504Z,53.69
2022-08-14T22:28:02.886Z,53.81
2022-08-14T22:30:30.337Z,54.26
2022-08-14T22:32:58.596Z,53.77
2022-08-14T22:35:27.726Z,53.88
2022-08-14T22:38:35.895Z,54.13
2022-08-14T22:40:57.441Z,54.44
2022-08-14T22:43:31.686Z,54.67
2022-08-14T22:46:02.119Z,54.68
2022-08-14T22:48:29.331Z,55.54
2022-08-14T22:50:56.022Z,54.93
2022-08-14T22:53:23.714Z,55.14
2022-08-14T22:55:52.006Z,55.78
2022-08-14T22:58:30.131Z,55.46
2022-08-14T23:01:00.999Z,55.66
2022-08-14T23:03:29.692Z,55.84
2022-08-14T23:06:02.099Z,55.87
2022-08-14T23:09:00.190Z,56.16
2022-08-14T23:11:15.465Z,56.90
2022-08-14T23:13:46.305Z,56.99
2022-08-14T23:16:19.870Z,56.73
2022-08-14T23:18:47.969Z,56.86
2022-08-14T23:21:24.658Z,57.09
2022-08-14T23:23:55.077Z,57.76
2022-08-14T23:26:47.145Z,57.63
2022-08-14T23:29:11.305Z,58.10
2022-08-14T23:31:39.376Z,58.05
2022-08-14T23:34:09.027Z,58.51
2022-08-14T23:36:53.444Z,58.74
2022-08-14T23:39:24.665Z,58.75
2022-08-14T23:41:56.475Z,58.90
2022-08-14T23:44:24.271Z,59.03
2022-08-14T23:46:57.129Z,59.38
2022-08-14T23:49:28.674Z,59.46
2022-08-14T23:52:51.160Z,59.99
2022-08-14T23:55:01.745Z,59.85
2022-08-14T23:57:28.693Z,59.90
2022-08-14T23:59:57.295Z,60.78
